Terminal Aerodrome Forecast
Issued by NWS Spokane, WA

Home | Current Version | Previous Version | Text Only | Print | Product List | Glossary On
Versions: 1 2 3 4 5 6 7 8 9 10 11 12 13 14 15 16 17 18
000
FTUS46 KOTX 091132
TAFLWS
TAF
KLWS 091132Z 0912/1012 14003KT P6SM SCT045 OVC060
     FM091600 14004KT P6SM OVC030
     FM092100 13003KT P6SM OVC060
     FM100100 11004KT 3SM -RASN SCT015 BKN025=

USA.gov is the U.S. government's official web portal to all federal, state and local government web resources and services.